Time;durP1;ratioP1;P1;durP2;ratioP2;P2;SDS_P1;SDS_P2;PMS_P1;PMS_P2;Temp;Humidity;BMP_temperature;BMP_pressure;BME280_temperature;BME280_humidity;BME280_pressure;Samples;Min_cycle;Max_cycle;Signal;HPM_P1;HPM_P2
2023/10/20 00:02:05;;;;;;;10.45;9.10;;;15.40;99.90;;;;;;5034621;28;20032;-59
2023/10/20 00:04:31;;;;;;;13.07;9.90;;;15.40;99.90;;;;;;5035006;28;20022;-59
2023/10/20 00:06:58;;;;;;;9.80;8.75;;;15.40;99.90;;;;;;5022603;28;20025;-59
2023/10/20 00:09:24;;;;;;;11.63;9.88;;;15.40;99.90;;;;;;5033204;28;20021;-59
2023/10/20 00:11:51;;;;;;;10.13;9.07;;;15.40;99.90;;;;;;5033957;28;20022;-59
2023/10/20 00:14:17;;;;;;;12.52;10.45;;;15.40;99.90;;;;;;5034644;28;20086;-59
2023/10/20 00:16:43;;;;;;;14.38;10.10;;;15.40;99.90;;;;;;5034475;28;20384;-59
2023/10/20 00:19:08;;;;;;;11.90;9.75;;;15.40;99.90;;;;;;5021935;28;20504;-59
2023/10/20 00:21:35;;;;;;;12.07;9.65;;;15.40;99.90;;;;;;5032894;28;20044;-59
2023/10/20 00:24:01;;;;;;;11.82;9.98;;;15.40;99.90;;;;;;5034585;28;20018;-59
2023/10/20 00:26:26;;;;;;;12.77;10.50;;;15.40;99.90;;;;;;5034535;28;20036;-59
2023/10/20 00:28:52;;;;;;;10.25;9.18;;;15.40;99.90;;;;;;5034861;28;20492;-59
2023/10/20 00:31:18;;;;;;;12.85;9.27;;;15.40;99.90;;;;;;5034251;28;20029;-59
2023/10/20 00:33:45;;;;;;;13.05;11.02;;;15.40;99.90;;;;;;5034431;28;20049;-59
2023/10/20 00:36:11;;;;;;;12.73;10.48;;;15.40;99.90;;;;;;5034118;28;20052;-59
2023/10/20 00:38:37;;;;;;;12.70;9.70;;;15.30;99.90;;;;;;5034294;28;20037;-59
2023/10/20 00:41:03;;;;;;;9.30;8.25;;;15.30;99.90;;;;;;5033416;28;20037;-59
2023/10/20 00:43:38;;;;;;;11.68;10.32;;;15.30;99.90;;;;;;5033381;28;20104;-59
2023/10/20 00:46:07;;;;;;;10.85;9.18;;;15.40;99.90;;;;;;5021823;28;20126;-59
2023/10/20 00:48:35;;;;;;;12.20;9.57;;;15.30;99.90;;;;;;5034101;28;20025;-59
2023/10/20 00:51:02;;;;;;;12.85;10.35;;;15.30;99.90;;;;;;5032655;28;20040;-58
2023/10/20 00:53:29;;;;;;;13.80;10.07;;;15.30;99.90;;;;;;5032551;28;20032;-59
2023/10/20 00:55:58;;;;;;;12.80;9.73;;;15.30;99.90;;;;;;5034601;28;20401;-59
2023/10/20 00:58:24;;;;;;;;;;;15.30;99.90;;;;;;5026016;28;20495;-59
2023/10/20 01:00:50;;;;;;;12.48;10.07;;;15.30;99.90;;;;;;5029614;28;19909;-59
2023/10/20 01:03:16;;;;;;;12.07;10.27;;;15.20;99.90;;;;;;5029092;28;20432;-59
2023/10/20 01:05:41;;;;;;;12.43;10.98;;;15.20;99.90;;;;;;5033326;28;20052;-59
2023/10/20 01:08:07;;;;;;;14.80;10.75;;;15.20;99.90;;;;;;5033557;28;20018;-59
2023/10/20 01:10:34;;;;;;;13.77;10.80;;;15.20;99.90;;;;;;5020498;28;20026;-59
2023/10/20 01:13:00;;;;;;;11.02;9.93;;;15.20;99.90;;;;;;5033919;28;20021;-59
2023/10/20 01:15:27;;;;;;;12.00;10.60;;;15.20;99.90;;;;;;5033647;28;20060;-59
2023/10/20 01:17:53;;;;;;;14.10;11.38;;;15.20;99.90;;;;;;5033733;28;20018;-59
2023/10/20 01:20:18;;;;;;;12.60;10.93;;;15.20;99.90;;;;;;5033261;28;20060;-59
2023/10/20 01:22:44;;;;;;;14.50;11.98;;;15.10;99.90;;;;;;5033763;28;20064;-59
2023/10/20 01:25:11;;;;;;;13.15;11.48;;;15.10;99.90;;;;;;5033088;28;20036;-59
2023/10/20 01:27:36;;;;;;;15.38;13.30;;;15.10;99.90;;;;;;5030296;28;20171;-59
2023/10/20 01:30:03;;;;;;;13.20;11.70;;;15.10;99.90;;;;;;5023847;28;20517;-59
2023/10/20 01:32:28;;;;;;;12.18;10.93;;;15.10;99.90;;;;;;5033189;28;20112;-59
2023/10/20 01:34:54;;;;;;;11.13;9.63;;;15.10;99.90;;;;;;5033434;28;20164;-59
2023/10/20 01:37:20;;;;;;;13.68;10.85;;;15.10;99.90;;;;;;5031344;28;20501;-59
2023/10/20 01:39:45;;;;;;;14.35;11.82;;;15.10;99.90;;;;;;5033063;28;20470;-59
2023/10/20 01:42:11;;;;;;;16.00;12.90;;;15.10;99.90;;;;;;5032948;28;20034;-59
2023/10/20 01:44:36;;;;;;;16.70;13.35;;;15.00;99.90;;;;;;5033309;28;20030;-59
2023/10/20 01:47:02;;;;;;;15.13;12.30;;;15.00;99.90;;;;;;5031302;28;20022;-58
2023/10/20 01:49:28;;;;;;;17.27;13.73;;;15.00;99.90;;;;;;5033331;28;20030;-59
2023/10/20 01:51:53;;;;;;;14.73;11.82;;;15.00;99.90;;;;;;5033032;28;20096;-59
2023/10/20 01:54:19;;;;;;;16.75;12.82;;;15.00;99.90;;;;;;5031859;28;20076;-59
2023/10/20 01:56:44;;;;;;;13.85;12.10;;;15.00;99.90;;;;;;5028513;28;20031;-59
2023/10/20 01:59:11;;;;;;;17.20;13.10;;;14.90;99.90;;;;;;5033093;28;20052;-59
2023/10/20 02:01:37;;;;;;;12.63;11.10;;;14.90;99.90;;;;;;5030327;28;20108;-59
2023/10/20 02:04:02;;;;;;;15.00;11.52;;;14.90;99.90;;;;;;5020508;28;20117;-59
2023/10/20 02:06:28;;;;;;;14.50;11.95;;;14.90;99.90;;;;;;5031075;28;20035;-59
2023/10/20 02:08:53;;;;;;;13.80;11.77;;;14.90;99.90;;;;;;5032816;28;20025;-59
2023/10/20 02:11:19;;;;;;;15.80;12.82;;;14.90;99.90;;;;;;5032808;28;20477;-59
2023/10/20 02:13:44;;;;;;;14.90;12.32;;;14.90;99.90;;;;;;5032324;28;20064;-59
2023/10/20 02:16:10;;;;;;;13.05;10.73;;;14.90;99.90;;;;;;5032256;28;20037;-59
2023/10/20 02:18:37;;;;;;;13.82;12.15;;;14.90;99.90;;;;;;5032292;28;20035;-59
2023/10/20 02:21:03;;;;;;;15.50;12.70;;;14.90;99.90;;;;;;5032170;28;20504;-59
2023/10/20 02:23:30;;;;;;;15.32;13.20;;;14.90;99.90;;;;;;5032196;28;20021;-59
2023/10/20 02:26:00;;;;;;;16.85;14.52;;;14.80;99.90;;;;;;5032737;28;20366;-59
2023/10/20 02:28:26;;;;;;;19.45;15.40;;;14.80;99.90;;;;;;5019161;28;20101;-59
2023/10/20 02:30:52;;;;;;;15.90;14.25;;;14.80;99.90;;;;;;5030764;28;20432;-59
2023/10/20 02:33:18;;;;;;;17.17;14.15;;;14.80;99.90;;;;;;5032405;28;20033;-59
2023/10/20 02:35:44;;;;;;;16.73;14.63;;;14.80;99.90;;;;;;5018825;28;20112;-59
2023/10/20 02:38:10;;;;;;;17.90;14.75;;;14.80;99.90;;;;;;5032248;28;20504;-59
2023/10/20 02:40:35;;;;;;;21.55;16.88;;;14.80;99.90;;;;;;5032041;28;20044;-59
2023/10/20 02:43:01;;;;;;;19.98;16.02;;;14.80;99.90;;;;;;5032256;28;20029;-59
2023/10/20 02:45:26;;;;;;;18.13;15.80;;;14.70;99.90;;;;;;5029759;28;20091;-59
2023/10/20 02:47:52;;;;;;;20.70;17.02;;;14.70;99.90;;;;;;5032108;28;20033;-59
2023/10/20 02:50:17;;;;;;;19.30;16.88;;;14.70;99.90;;;;;;5031703;28;20036;-59
2023/10/20 02:52:44;;;;;;;21.98;18.73;;;14.70;99.90;;;;;;5023639;28;20581;-59
2023/10/20 02:55:10;;;;;;;20.40;17.55;;;14.70;99.90;;;;;;5026825;28;20320;-59
2023/10/20 02:57:36;;;;;;;19.10;17.08;;;14.70;99.90;;;;;;5030507;28;20053;-59
2023/10/20 03:00:04;;;;;;;18.27;15.90;;;14.70;99.90;;;;;;5031321;28;20025;-59
2023/10/20 03:02:30;;;;;;;19.50;16.70;;;14.70;99.90;;;;;;5022747;28;20489;-59
2023/10/20 03:04:56;;;;;;;19.63;17.52;;;14.70;99.90;;;;;;5027647;28;20091;-59
2023/10/20 03:07:24;;;;;;;21.30;17.75;;;14.80;99.90;;;;;;5023397;28;20038;-59
2023/10/20 03:09:51;;;;;;;20.60;17.42;;;14.70;99.90;;;;;;5026096;28;20025;-59
2023/10/20 03:12:17;;;;;;;23.00;18.10;;;14.70;99.90;;;;;;5031737;28;20033;-59
2023/10/20 03:14:44;;;;;;;23.38;20.10;;;14.70;99.90;;;;;;5030412;28;20030;-59
2023/10/20 03:17:11;;;;;;;21.63;18.90;;;14.70;99.90;;;;;;5031535;28;20108;-59
2023/10/20 03:19:37;;;;;;;24.13;20.10;;;14.70;99.90;;;;;;5030140;28;20041;-59
2023/10/20 03:22:02;;;;;;;22.77;18.42;;;14.70;99.90;;;;;;5031124;28;20024;-59
2023/10/20 03:24:28;;;;;;;23.08;19.33;;;14.70;99.90;;;;;;5029986;28;20018;-59
2023/10/20 03:26:54;;;;;;;21.27;18.83;;;14.70;99.90;;;;;;5031423;28;20025;-59
2023/10/20 03:29:19;;;;;;;22.40;20.00;;;14.70;99.90;;;;;;5029080;28;20124;-59
2023/10/20 03:31:45;;;;;;;23.70;19.70;;;14.70;99.90;;;;;;5020397;28;20057;-59
2023/10/20 03:34:10;;;;;;;24.85;20.58;;;14.70;99.90;;;;;;5031160;28;20025;-59
2023/10/20 03:36:36;;;;;;;22.80;18.95;;;14.70;99.90;;;;;;5030226;28;20499;-59
2023/10/20 03:39:02;;;;;;;21.40;19.02;;;14.70;99.90;;;;;;5031118;28;20026;-59
2023/10/20 03:41:29;;;;;;;25.17;20.60;;;14.70;99.90;;;;;;5031232;28;20533;-59
2023/10/20 03:43:54;;;;;;;24.33;19.85;;;14.60;99.90;;;;;;5028122;28;20038;-59
2023/10/20 03:46:20;;;;;;;24.40;19.95;;;14.60;99.90;;;;;;5021168;28;20076;-59
2023/10/20 03:48:45;;;;;;;27.95;19.27;;;14.60;99.90;;;;;;5028729;28;20487;-59
2023/10/20 03:51:12;;;;;;;26.27;20.40;;;14.60;99.90;;;;;;5031273;28;20041;-59
2023/10/20 03:53:50;;;;;;;20.60;17.60;;;14.60;99.90;;;;;;5030683;28;20018;-59
2023/10/20 03:56:18;;;;;;;24.95;20.77;;;14.60;99.90;;;;;;5031077;28;20024;-59
2023/10/20 03:58:46;;;;;;;24.52;20.75;;;14.60;99.90;;;;;;5030917;28;20049;-59
2023/10/20 04:01:11;;;;;;;26.17;20.23;;;14.60;99.90;;;;;;5031254;28;20017;-59
2023/10/20 04:03:38;;;;;;;25.95;21.77;;;14.60;99.90;;;;;;5010232;28;20022;-59
2023/10/20 04:06:11;;;;;;;25.48;19.75;;;14.60;99.90;;;;;;5023234;28;20014;-59
2023/10/20 04:08:37;;;;;;;25.17;20.00;;;14.60;99.90;;;;;;5030627;28;20032;-59
2023/10/20 04:11:03;;;;;;;27.35;20.67;;;14.50;99.90;;;;;;5030823;28;20030;-59
2023/10/20 04:13:29;;;;;;;25.48;20.98;;;14.50;99.90;;;;;;5031010;28;20032;-59
2023/10/20 04:15:55;;;;;;;29.25;21.60;;;14.60;99.90;;;;;;5031123;28;20025;-59
2023/10/20 04:18:22;;;;;;;24.17;20.08;;;14.60;99.90;;;;;;5030889;28;20029;-59
2023/10/20 04:20:51;;;;;;;26.38;20.83;;;14.60;99.90;;;;;;5031376;28;20049;-59
2023/10/20 04:23:17;;;;;;;24.92;18.20;;;14.60;99.90;;;;;;5028332;28;20087;-58
2023/10/20 04:25:52;;;;;;;21.33;18.40;;;14.60;99.90;;;;;;5028653;28;20041;-59
2023/10/20 04:28:20;;;;;;;22.50;17.88;;;14.50;99.90;;;;;;5034929;28;20021;-59
2023/10/20 04:44:58;;;;;;;28.10;19.80;;;14.40;99.90;;;;;;5028821;28;20037;-59
2023/10/20 04:48:00;;;;;;;30.67;22.63;;;14.40;99.90;;;;;;5033900;28;20021;-59
2023/10/20 04:50:48;;;;;;;27.27;20.65;;;14.40;99.90;;;;;;5033447;28;20040;-59
2023/10/20 04:53:31;;;;;;;30.77;20.95;;;14.40;99.90;;;;;;5033441;28;20037;-59
2023/10/20 04:58:59;;;;;;;30.67;22.75;;;14.30;99.90;;;;;;5033900;28;20049;-59
2023/10/20 05:01:40;;;;;;;32.35;21.70;;;14.30;99.90;;;;;;5032408;28;20033;-59
2023/10/20 05:04:17;;;;;;;25.20;19.88;;;14.30;99.90;;;;;;5025178;28;20374;-60
2023/10/20 05:06:44;;;;;;;27.23;21.25;;;14.30;99.90;;;;;;5033395;28;20021;-59
2023/10/20 05:09:13;;;;;;;29.42;22.02;;;14.30;99.90;;;;;;5032626;28;20017;-59
2023/10/20 05:11:39;;;;;;;31.13;21.98;;;14.20;99.90;;;;;;5033936;28;20033;-59
2023/10/20 05:14:05;;;;;;;34.83;22.98;;;14.20;99.90;;;;;;5033838;28;20080;-59
2023/10/20 05:16:33;;;;;;;29.88;22.48;;;14.20;99.90;;;;;;5033069;28;20018;-59
2023/10/20 05:19:03;;;;;;;28.85;21.13;;;14.20;99.90;;;;;;5033909;28;20075;-59
2023/10/20 05:21:29;;;;;;;28.83;21.45;;;14.10;99.90;;;;;;5032645;28;20518;-59
2023/10/20 05:23:54;;;;;;;33.05;22.80;;;14.10;99.90;;;;;;5033579;28;20104;-59
2023/10/20 05:26:20;;;;;;;31.23;21.33;;;14.10;99.90;;;;;;5030232;28;20363;-59
2023/10/20 05:28:46;;;;;;;29.83;21.27;;;14.10;99.90;;;;;;5037150;28;20070;-59
2023/10/20 05:31:11;;;;;;;31.45;21.13;;;14.00;99.90;;;;;;5014094;28;20034;-59
2023/10/20 05:33:37;;;;;;;29.10;20.13;;;14.00;99.90;;;;;;5021390;28;20032;-59
2023/10/20 05:36:03;;;;;;;27.50;19.42;;;14.00;99.90;;;;;;5017458;28;20033;-59
2023/10/20 05:38:29;;;;;;;25.52;19.95;;;14.00;99.90;;;;;;5030056;28;20057;-59
2023/10/20 05:40:59;;;;;;;24.30;17.95;;;14.00;99.90;;;;;;5031063;28;20508;-59
2023/10/20 05:43:25;;;;;;;22.55;17.35;;;13.90;99.90;;;;;;5032437;28;20094;-59
2023/10/20 05:45:51;;;;;;;23.33;17.10;;;13.90;99.90;;;;;;5031223;28;20397;-59
2023/10/20 05:48:17;;;;;;;19.55;15.10;;;13.90;99.90;;;;;;5033411;28;20029;-59
2023/10/20 05:50:42;;;;;;;21.63;16.58;;;13.90;99.90;;;;;;5030845;28;20036;-59
2023/10/20 05:53:10;;;;;;;22.92;17.10;;;13.90;99.90;;;;;;5033158;28;20037;-59
2023/10/20 05:55:35;;;;;;;20.45;15.30;;;13.90;99.90;;;;;;5021248;28;20137;-59
2023/10/20 05:58:02;;;;;;;22.48;16.52;;;13.90;99.90;;;;;;5032959;28;20132;-59
2023/10/20 06:00:27;;;;;;;22.10;16.02;;;13.90;99.90;;;;;;5031405;28;20035;-59
2023/10/20 06:02:54;;;;;;;23.50;17.10;;;13.90;99.90;;;;;;5020641;28;20026;-59
2023/10/20 06:05:20;;;;;;;23.25;17.05;;;13.80;99.90;;;;;;5032085;28;20137;-59
2023/10/20 06:07:47;;;;;;;20.48;14.90;;;13.80;99.90;;;;;;5032673;28;20116;-59
2023/10/20 06:10:16;;;;;;;21.65;15.60;;;13.80;99.90;;;;;;5031686;28;20362;-58
2023/10/20 06:12:42;;;;;;;20.58;14.77;;;13.80;99.90;;;;;;5022610;28;20025;-58
2023/10/20 06:15:09;;;;;;;21.55;15.63;;;13.80;99.90;;;;;;5031112;28;20060;-58
2023/10/20 06:17:35;;;;;;;22.05;15.13;;;13.80;99.90;;;;;;5032498;28;20421;-59
2023/10/20 06:20:06;;;;;;;20.17;15.02;;;13.80;99.90;;;;;;5032459;28;20059;-59
2023/10/20 06:22:32;;;;;;;19.65;14.82;;;13.80;99.90;;;;;;5032955;28;20030;-59
2023/10/20 06:24:59;;;;;;;18.33;13.52;;;13.70;99.90;;;;;;5031993;28;20017;-59
2023/10/20 06:27:25;;;;;;;20.02;14.18;;;13.70;99.90;;;;;;5030908;28;20055;-58
2023/10/20 06:30:06;;;;;;;17.15;13.52;;;13.70;99.90;;;;;;5019976;28;20013;-58
2023/10/20 06:32:41;;;;;;;18.55;13.90;;;13.70;99.90;;;;;;5030680;28;20032;-58
2023/10/20 06:35:09;;;;;;;20.67;14.50;;;13.70;99.90;;;;;;5022459;28;20022;-58
2023/10/20 06:38:08;;;;;;;21.13;15.23;;;13.70;99.90;;;;;;5029741;28;20067;-58
2023/10/20 06:40:21;;;;;;;21.60;15.13;;;13.70;99.90;;;;;;5031025;28;20477;-58
2023/10/20 06:42:46;;;;;;;21.75;15.10;;;13.60;99.90;;;;;;5032336;28;20028;-58
2023/10/20 06:45:12;;;;;;;20.60;15.05;;;13.60;99.90;;;;;;5031332;28;20366;-58
2023/10/20 06:47:41;;;;;;;23.23;16.33;;;13.60;99.90;;;;;;5032043;28;20025;-58
2023/10/20 06:50:10;;;;;;;20.43;14.60;;;13.60;99.90;;;;;;5031847;28;20022;-58
2023/10/20 06:52:35;;;;;;;21.35;15.65;;;13.50;99.90;;;;;;5032213;28;20481;-59
2023/10/20 06:55:03;;;;;;;21.88;16.13;;;13.50;99.90;;;;;;5031378;28;20080;-59
2023/10/20 06:57:28;;;;;;;21.02;15.50;;;13.40;99.90;;;;;;5030528;28;20084;-58
2023/10/20 06:59:54;;;;;;;21.98;14.65;;;13.40;99.90;;;;;;5031380;28;20462;-58
2023/10/20 07:02:20;;;;;;;22.45;15.63;;;13.40;99.90;;;;;;5024006;28;20032;-58
2023/10/20 07:04:45;;;;;;;20.27;14.63;;;13.30;99.90;;;;;;5027366;28;20481;-59
2023/10/20 07:07:15;;;;;;;20.98;14.38;;;13.30;99.90;;;;;;5031430;28;20120;-58
2023/10/20 07:09:41;;;;;;;20.25;15.65;;;13.30;99.90;;;;;;5031821;28;20040;-58
2023/10/20 07:12:07;;;;;;;19.38;13.75;;;13.30;99.90;;;;;;5031585;28;20262;-58
2023/10/20 07:14:34;;;;;;;22.75;13.98;;;13.30;99.90;;;;;;5031468;28;20029;-58
2023/10/20 07:17:03;;;;;;;18.50;14.13;;;13.30;99.90;;;;;;5031671;28;20087;-58
2023/10/20 07:19:31;;;;;;;18.67;13.15;;;13.30;99.90;;;;;;5031441;28;20034;-59
2023/10/20 07:21:56;;;;;;;23.15;14.90;;;13.30;99.90;;;;;;5031664;28;20053;-58
2023/10/20 07:24:23;;;;;;;20.45;14.20;;;13.30;99.90;;;;;;5030923;28;20466;-58
2023/10/20 07:26:49;;;;;;;18.80;13.30;;;13.20;99.90;;;;;;5031947;28;20067;-58
2023/10/20 07:29:14;;;;;;;19.10;13.35;;;13.20;99.90;;;;;;5029179;28;20048;-58
2023/10/20 07:31:40;;;;;;;20.95;14.52;;;13.20;99.90;;;;;;5020717;28;20474;-58
2023/10/20 07:34:09;;;;;;;18.33;12.45;;;13.10;99.90;;;;;;5029895;28;20036;-58
2023/10/20 07:36:35;;;;;;;18.33;12.83;;;13.10;99.90;;;;;;5031918;28;20029;-58
2023/10/20 07:39:01;;;;;;;15.13;10.38;;;13.10;99.90;;;;;;5030978;28;20022;-58
2023/10/20 07:41:26;;;;;;;17.02;11.38;;;13.10;99.90;;;;;;5031246;28;20036;-58
2023/10/20 07:43:52;;;;;;;15.95;11.57;;;13.00;99.90;;;;;;5030141;28;20032;-58
2023/10/20 07:46:18;;;;;;;13.73;9.45;;;13.00;99.90;;;;;;5031325;28;20030;-58
2023/10/20 07:48:44;;;;;;;14.95;10.13;;;13.00;99.90;;;;;;5029965;28;20109;-58
2023/10/20 07:51:11;;;;;;;13.73;9.85;;;13.00;99.90;;;;;;5021786;28;20026;-58
2023/10/20 07:53:37;;;;;;;15.43;9.75;;;12.90;99.90;;;;;;5028758;28;20049;-58
2023/10/20 07:56:03;;;;;;;11.90;8.90;;;12.90;99.90;;;;;;5030871;28;20059;-58
2023/10/20 07:58:28;;;;;;;14.15;9.68;;;12.90;99.90;;;;;;5030082;28;20052;-58
2023/10/20 08:00:54;;;;;;;12.00;8.52;;;12.90;99.90;;;;;;5031105;28;20033;-58
2023/10/20 08:03:19;;;;;;;13.63;9.32;;;12.90;99.90;;;;;;5021297;28;20028;-58
2023/10/20 08:05:45;;;;;;;13.93;7.85;;;12.80;99.90;;;;;;5033566;28;20087;-58
2023/10/20 08:08:10;;;;;;;11.13;7.78;;;12.80;99.90;;;;;;5034579;28;20087;-58
2023/10/20 08:10:37;;;;;;;12.02;7.97;;;12.80;99.90;;;;;;5034757;28;20481;-58
2023/10/20 08:13:03;;;;;;;10.77;7.13;;;12.80;99.90;;;;;;5034391;28;20096;-58
2023/10/20 08:15:29;;;;;;;11.27;6.35;;;12.80;99.90;;;;;;5028235;28;20029;-58
2023/10/20 08:17:55;;;;;;;9.70;6.57;;;12.70;99.90;;;;;;5029029;28;20021;-58
2023/10/20 08:20:21;;;;;;;8.80;5.75;;;12.70;99.90;;;;;;5035177;28;20057;-58
2023/10/20 08:22:47;;;;;;;9.07;6.53;;;12.70;99.90;;;;;;5021649;28;20072;-58
2023/10/20 08:25:13;;;;;;;6.45;4.75;;;12.60;99.90;;;;;;5034755;28;20029;-58
2023/10/20 08:27:39;;;;;;;7.55;5.18;;;12.60;99.90;;;;;;5034005;28;20056;-58
2023/10/20 08:30:05;;;;;;;6.50;4.25;;;12.60;99.90;;;;;;5034693;28;20470;-58
2023/10/20 08:32:31;;;;;;;6.07;4.80;;;12.60;99.90;;;;;;5033999;28;20057;-58
2023/10/20 08:34:57;;;;;;;7.03;4.43;;;12.50;99.90;;;;;;5034610;28;20068;-58
2023/10/20 08:37:22;;;;;;;6.00;4.53;;;12.50;99.90;;;;;;5033681;28;20025;-58
2023/10/20 08:39:48;;;;;;;6.00;4.13;;;12.40;99.90;;;;;;5034632;28;20025;-58
2023/10/20 08:42:16;;;;;;;5.43;3.92;;;12.40;99.90;;;;;;5033784;28;20393;-58
2023/10/20 08:44:43;;;;;;;5.63;4.13;;;12.40;99.90;;;;;;5034267;28;20095;-58
2023/10/20 08:47:10;;;;;;;4.72;3.58;;;12.40;99.90;;;;;;5033822;28;20061;-58
2023/10/20 08:49:37;;;;;;;4.85;3.35;;;12.30;99.90;;;;;;5024938;28;20478;-58
2023/10/20 08:52:05;;;;;;;4.85;3.20;;;12.30;99.90;;;;;;5029830;28;20033;-58
2023/10/20 08:54:31;;;;;;;4.97;3.30;;;12.30;99.90;;;;;;5034064;28;20499;-58
2023/10/20 08:56:57;;;;;;;3.85;2.72;;;12.20;99.90;;;;;;5030906;28;20109;-58
2023/10/20 08:59:23;;;;;;;3.25;2.67;;;12.20;99.90;;;;;;5024201;28;20085;-58
2023/10/20 09:01:50;;;;;;;3.90;2.70;;;12.20;99.90;;;;;;5033894;28;20053;-58
2023/10/20 09:04:26;;;;;;;4.53;2.95;;;12.20;99.90;;;;;;5033902;28;20096;-58
2023/10/20 09:06:53;;;;;;;3.55;2.60;;;12.20;99.90;;;;;;5032842;28;20022;-58
2023/10/20 09:09:19;;;;;;;6.22;2.75;;;12.20;99.90;;;;;;5034156;28;20031;-58
2023/10/20 09:11:46;;;;;;;3.15;2.08;;;12.20;99.90;;;;;;5032151;28;20437;-58
2023/10/20 09:14:14;;;;;;;3.03;2.03;;;12.20;99.90;;;;;;5031134;28;20033;-58
2023/10/20 09:16:39;;;;;;;4.20;2.05;;;12.20;99.90;;;;;;5029441;28;20037;-58
2023/10/20 09:19:06;;;;;;;3.47;1.75;;;12.10;99.90;;;;;;5025380;28;20026;-58
2023/10/20 09:21:31;;;;;;;2.80;1.90;;;12.20;99.90;;;;;;5031983;28;20108;-58
2023/10/20 09:23:57;;;;;;;2.80;1.95;;;12.10;99.90;;;;;;5033788;28;20529;-58
2023/10/20 09:26:24;;;;;;;2.40;1.65;;;12.10;99.90;;;;;;5031952;28;20100;-58
2023/10/20 09:28:53;;;;;;;3.53;1.75;;;12.10;99.90;;;;;;5033547;28;20036;-58
2023/10/20 09:31:20;;;;;;;2.58;1.63;;;12.10;99.90;;;;;;5031989;28;20041;-58
2023/10/20 09:33:46;;;;;;;2.03;1.48;;;12.10;99.90;;;;;;5032264;28;20053;-58
2023/10/20 09:36:12;;;;;;;2.50;1.90;;;12.10;99.90;;;;;;5033492;28;20425;-58
2023/10/20 09:38:38;;;;;;;2.38;1.58;;;12.10;99.90;;;;;;5033239;28;20033;-58
2023/10/20 09:41:13;;;;;;;3.47;1.95;;;12.10;99.90;;;;;;5032090;28;20447;-58
2023/10/20 09:44:12;;;;;;;2.13;1.40;;;12.10;99.90;;;;;;5033309;28;20025;-58
2023/10/20 09:47:04;;;;;;;2.33;1.30;;;12.10;99.90;;;;;;5025639;28;20034;-58
2023/10/20 09:49:31;;;;;;;2.60;1.33;;;12.10;99.90;;;;;;5022555;28;20485;-58
2023/10/20 09:51:56;;;;;;;1.75;1.25;;;12.00;99.90;;;;;;5033184;28;20025;-58
2023/10/20 09:54:28;;;;;;;2.85;1.27;;;12.10;99.90;;;;;;5031816;28;20036;-58
2023/10/20 09:56:55;;;;;;;1.70;1.08;;;12.10;99.90;;;;;;5032522;28;20034;-58
2023/10/20 09:59:23;;;;;;;2.65;1.00;;;12.10;99.90;;;;;;5032825;28;20041;-58
2023/10/20 10:01:52;;;;;;;1.50;0.93;;;12.10;99.90;;;;;;5028674;28;20101;-58
2023/10/20 10:04:30;;;;;;;1.20;0.80;;;12.10;99.90;;;;;;5012020;28;20026;-58
2023/10/20 10:07:03;;;;;;;1.25;0.80;;;12.10;99.90;;;;;;5031733;28;20079;-58
2023/10/20 10:09:52;;;;;;;1.75;0.80;;;12.10;99.90;;;;;;5033054;28;20025;-58
2023/10/20 10:12:20;;;;;;;1.17;0.60;;;12.10;99.90;;;;;;5021205;28;20037;-58
2023/10/20 10:15:01;;;;;;;1.35;0.80;;;12.10;99.90;;;;;;5032146;28;20497;-58
2023/10/20 10:17:27;;;;;;;1.17;0.70;;;12.10;99.90;;;;;;5032910;28;20035;-58
2023/10/20 10:19:54;;;;;;;1.17;0.70;;;12.10;99.90;;;;;;5031519;28;20025;-58
2023/10/20 10:22:28;;;;;;;0.90;0.63;;;12.10;99.90;;;;;;5031731;28;20040;-58
2023/10/20 10:24:59;;;;;;;1.38;0.70;;;12.10;99.90;;;;;;5031860;28;20049;-58
2023/10/20 10:27:28;;;;;;;1.20;0.70;;;12.10;99.90;;;;;;5032433;28;20021;-58
2023/10/20 10:30:05;;;;;;;1.03;0.80;;;12.10;99.90;;;;;;5032015;28;20030;-58
2023/10/20 10:32:32;;;;;;;1.35;0.70;;;12.10;99.90;;;;;;5029631;28;21078;-58
2023/10/20 10:34:58;;;;;;;2.53;0.70;;;12.10;99.90;;;;;;5032164;28;20029;-58
2023/10/20 10:37:30;;;;;;;1.10;0.70;;;12.10;99.90;;;;;;5031754;28;20033;-58
2023/10/20 10:40:25;;;;;;;1.17;0.70;;;12.20;99.90;;;;;;5029032;28;20052;-58
2023/10/20 10:42:52;;;;;;;1.52;0.70;;;12.20;99.90;;;;;;5022813;28;20044;-58
2023/10/20 10:45:34;;;;;;;0.85;0.65;;;12.20;99.90;;;;;;5031678;28;20034;-58
2023/10/20 10:48:09;;;;;;;1.40;0.80;;;12.20;99.90;;;;;;5024322;28;20061;-58
2023/10/20 10:50:43;;;;;;;1.13;0.60;;;12.20;99.90;;;;;;5012403;28;20104;-58
2023/10/20 10:53:13;;;;;;;1.83;0.77;;;12.20;99.90;;;;;;5025227;28;20469;-58
2023/10/20 10:55:40;;;;;;;1.00;0.70;;;12.20;99.90;;;;;;5031421;28;20018;-58
2023/10/20 10:58:08;;;;;;;2.38;0.80;;;12.20;99.90;;;;;;5022372;28;20052;-57
2023/10/20 11:00:35;;;;;;;1.42;0.60;;;12.10;99.90;;;;;;5028900;28;20379;-58
2023/10/20 11:03:02;;;;;;;1.20;0.70;;;12.20;99.90;;;;;;5030464;28;20017;-58
2023/10/20 11:05:29;;;;;;;0.98;0.52;;;12.20;99.90;;;;;;5033577;28;20046;-58
2023/10/20 11:07:59;;;;;;;1.05;0.60;;;12.20;99.90;;;;;;5034340;28;20025;-58
2023/10/20 11:10:27;;;;;;;1.60;0.52;;;12.20;99.90;;;;;;5045729;28;20057;-58
2023/10/20 11:12:53;;;;;;;1.58;0.70;;;12.20;99.90;;;;;;5044185;28;20013;-57
2023/10/20 11:15:19;;;;;;;1.10;0.65;;;12.20;99.90;;;;;;5030800;28;20029;-57
2023/10/20 11:17:45;;;;;;;0.75;0.60;;;12.20;99.90;;;;;;5030824;28;20018;-58
2023/10/20 11:20:11;;;;;;;1.33;0.50;;;12.20;99.90;;;;;;5029914;28;20536;-57
2023/10/20 11:22:37;;;;;;;1.00;0.60;;;12.30;99.90;;;;;;5029107;28;20021;-58
2023/10/20 11:25:05;;;;;;;0.88;0.52;;;12.30;99.90;;;;;;5028805;28;20014;-58
2023/10/20 11:27:40;;;;;;;1.10;0.63;;;12.30;99.90;;;;;;5029105;28;20025;-58
2023/10/20 11:30:07;;;;;;;1.98;0.70;;;12.30;99.90;;;;;;5020265;28;20100;-58
2023/10/20 11:32:33;;;;;;;0.80;0.57;;;12.30;99.90;;;;;;5028867;28;20410;-58
2023/10/20 11:34:59;;;;;;;1.02;0.50;;;12.40;99.90;;;;;;5031180;28;20033;-58
2023/10/20 11:37:25;;;;;;;1.23;0.70;;;12.40;99.90;;;;;;5029366;28;20056;-58
2023/10/20 11:39:50;;;;;;;0.70;0.60;;;12.40;99.90;;;;;;5031466;28;20057;-58
2023/10/20 11:42:16;;;;;;;1.63;0.75;;;12.40;99.90;;;;;;5029768;28;20064;-58
2023/10/20 11:44:41;;;;;;;2.25;0.70;;;12.40;99.90;;;;;;5029960;28;20121;-58
2023/10/20 11:47:07;;;;;;;1.50;0.50;;;12.40;99.90;;;;;;5029248;28;20053;-58
2023/10/20 11:49:32;;;;;;;0.90;0.70;;;12.40;99.90;;;;;;5031388;28;20084;-58
2023/10/20 11:51:58;;;;;;;1.10;0.50;;;12.40;99.90;;;;;;5030759;28;20387;-58
2023/10/20 11:54:23;;;;;;;1.10;0.63;;;12.40;99.90;;;;;;5030181;28;20381;-58
2023/10/20 11:56:50;;;;;;;1.33;0.77;;;12.50;99.90;;;;;;5030610;28;20389;-58
2023/10/20 11:59:16;;;;;;;0.82;0.50;;;12.50;99.90;;;;;;5030888;28;20497;-58
2023/10/20 12:01:41;;;;;;;1.50;0.50;;;12.50;99.90;;;;;;5026119;28;20434;-58
2023/10/20 12:04:08;;;;;;;0.80;0.60;;;12.50;99.90;;;;;;5020552;28;20444;-58
2023/10/20 12:06:38;;;;;;;1.08;0.80;;;12.50;99.90;;;;;;5030099;28;20030;-58
2023/10/20 12:09:10;;;;;;;1.02;0.60;;;12.50;99.90;;;;;;5029740;28;20018;-58
2023/10/20 12:11:36;;;;;;;1.13;0.70;;;12.50;99.90;;;;;;5017538;28;20026;-58
2023/10/20 12:14:05;;;;;;;0.75;0.52;;;12.50;99.90;;;;;;5030834;28;20032;-58
2023/10/20 12:16:31;;;;;;;1.00;0.60;;;12.50;99.90;;;;;;5030365;28;20022;-58
2023/10/20 12:19:05;;;;;;;0.65;0.40;;;12.50;99.90;;;;;;5029737;28;20036;-57
2023/10/20 12:21:32;;;;;;;1.42;0.68;;;12.50;99.90;;;;;;5029931;28;20044;-58
2023/10/20 12:23:57;;;;;;;0.70;0.60;;;12.50;99.90;;;;;;5029491;28;20374;-58
2023/10/20 12:26:24;;;;;;;0.57;0.50;;;12.60;99.90;;;;;;5029735;28;20491;-58
2023/10/20 12:28:50;;;;;;;1.00;0.90;;;12.60;99.90;;;;;;5029571;28;20072;-58
2023/10/20 12:31:16;;;;;;;1.20;0.73;;;12.60;99.90;;;;;;5029648;28;20108;-58
2023/10/20 12:33:44;;;;;;;1.05;0.60;;;12.50;99.90;;;;;;5030018;28;20083;-58
2023/10/20 12:36:13;;;;;;;0.90;0.55;;;12.60;99.90;;;;;;5029765;28;20026;-58
2023/10/20 12:38:45;;;;;;;0.93;0.68;;;12.50;99.90;;;;;;5017641;28;20038;-58
2023/10/20 12:41:14;;;;;;;0.88;0.50;;;12.50;99.90;;;;;;5018233;28;20044;-58
2023/10/20 12:43:40;;;;;;;1.00;0.60;;;12.50;99.90;;;;;;5029128;28;20033;-58
2023/10/20 12:46:06;;;;;;;0.80;0.55;;;12.50;99.90;;;;;;5030237;28;20018;-58
2023/10/20 12:48:33;;;;;;;1.00;0.50;;;12.50;99.90;;;;;;5032272;28;20021;-58
2023/10/20 12:51:05;;;;;;;1.90;0.70;;;12.50;99.90;;;;;;5034630;28;20018;-58
2023/10/20 12:53:31;;;;;;;2.13;0.60;;;12.50;99.90;;;;;;5033529;28;20025;-58
2023/10/20 12:55:56;;;;;;;2.22;0.50;;;12.50;99.90;;;;;;5033609;28;20513;-58